Time;durP1;ratioP1;P1;durP2;ratioP2;P2;SDS_P1;SDS_P2;PMS_P1;PMS_P2;Temp;Humidity;BMP_temperature;BMP_pressure;BME280_temperature;BME280_humidity;BME280_pressure;Samples;Min_cycle;Max_cycle;Signal;HPM_P1;HPM_P2
2022/12/17 13:08:18;;;;;;;22.48;11.38;;;-0.40;99.90;;;;;;5113216;27;20080;-61
2022/12/17 13:10:44;;;;;;;59.88;24.88;;;-0.40;99.90;;;;;;5089777;27;20130;-61
2022/12/17 13:13:36;;;;;;;38.50;15.73;;;-0.40;99.90;;;;;;5106221;28;20176;-61
2022/12/17 13:16:21;;;;;;;84.43;33.53;;;-0.40;99.90;;;;;;5088492;28;20036;-61
2022/12/17 13:18:48;;;;;;;76.57;33.03;;;-0.40;99.90;;;;;;5107338;28;20224;-61
2022/12/17 13:21:13;;;;;;;43.90;19.75;;;-0.40;99.90;;;;;;5105281;28;20055;-61
2022/12/17 13:23:39;;;;;;;66.93;27.67;;;-0.40;99.90;;;;;;5088669;28;20047;-61
2022/12/17 13:26:16;;;;;;;43.92;20.48;;;-0.40;99.90;;;;;;5109202;27;20035;-61
2022/12/17 13:28:47;;;;;;;48.50;21.90;;;-0.40;99.90;;;;;;5118234;27;20443;-61
2022/12/17 13:31:20;;;;;;;51.33;21.67;;;-0.40;99.90;;;;;;5074635;27;20042;-61
2022/12/17 13:34:15;;;;;;;61.33;28.65;;;-0.50;99.90;;;;;;5119616;27;20050;-61
2022/12/17 13:36:47;;;;;;;35.35;13.88;;;-0.50;99.90;;;;;;5113623;27;20517;-61
2022/12/17 13:39:40;;;;;;;68.43;28.27;;;-0.50;99.90;;;;;;5117738;27;20042;-61
2022/12/17 13:42:22;;;;;;;64.35;27.83;;;-0.50;99.90;;;;;;5113534;27;20040;-61
2022/12/17 13:44:48;;;;;;;81.95;34.63;;;-0.40;99.90;;;;;;5115807;27;20463;-61
2022/12/17 13:47:22;;;;;;;28.27;14.30;;;-0.40;99.90;;;;;;5126387;27;20167;-61
2022/12/17 13:49:53;;;;;;;66.97;29.20;;;-0.40;99.90;;;;;;5101641;27;20515;-61
2022/12/17 13:52:25;;;;;;;65.65;28.80;;;-0.40;99.90;;;;;;5121419;27;20039;-61
2022/12/17 13:54:53;;;;;;;63.28;26.42;;;-0.40;99.90;;;;;;5110291;27;20050;-61
2022/12/17 13:57:21;;;;;;;40.00;19.10;;;-0.40;99.90;;;;;;5126996;27;20483;-61
2022/12/17 14:00:01;;;;;;;61.45;25.88;;;-0.40;99.90;;;;;;5122720;27;20611;-61
2022/12/17 14:02:29;;;;;;;65.70;29.90;;;-0.40;99.90;;;;;;5117155;27;20084;-61
2022/12/17 14:04:58;;;;;;;56.42;22.45;;;-0.40;99.90;;;;;;5113775;27;20512;-61
2022/12/17 14:07:26;;;;;;;64.68;28.00;;;-0.50;99.90;;;;;;5105578;27;20027;-61
2022/12/17 14:09:53;;;;;;;48.00;22.83;;;-0.50;99.90;;;;;;5122067;27;20049;-61
2022/12/17 14:12:22;;;;;;;42.25;18.85;;;-0.60;99.90;;;;;;5120019;27;20493;-61
2022/12/17 14:14:54;;;;;;;73.20;32.42;;;-0.50;99.90;;;;;;5122631;27;20039;-61
2022/12/17 14:17:39;;;;;;;51.42;24.75;;;-0.60;99.90;;;;;;5086716;27;20485;-61
2022/12/17 14:20:11;;;;;;;59.28;23.92;;;-0.60;99.90;;;;;;5107803;27;20040;-61
2022/12/17 14:22:40;;;;;;;70.15;32.85;;;-0.60;99.90;;;;;;5111446;27;20039;-61
2022/12/17 14:25:18;;;;;;;57.28;22.70;;;-0.60;99.90;;;;;;5106584;27;20119;-61
2022/12/17 14:27:59;;;;;;;53.90;24.45;;;-0.60;99.90;;;;;;5109976;27;20068;-61
2022/12/17 14:30:41;;;;;;;37.00;15.10;;;-0.60;99.90;;;;;;5106669;27;20140;-61
2022/12/17 14:33:34;;;;;;;37.92;13.98;;;-0.60;99.90;;;;;;5096138;28;20402;-61
2022/12/17 14:36:27;;;;;;;66.47;28.05;;;-0.60;99.90;;;;;;5101599;27;20632;-61
2022/12/17 14:38:58;;;;;;;67.63;25.30;;;-0.60;99.90;;;;;;5089351;28;20542;-61
2022/12/17 14:44:21;;;;;;;62.38;25.70;;;-0.50;99.90;;;;;;5115533;27;20481;-61
2022/12/17 14:46:47;;;;;;;38.33;16.13;;;-0.60;99.90;;;;;;5117354;27;20065;-61
2022/12/17 14:49:20;;;;;;;56.83;24.23;;;-0.60;99.90;;;;;;5114363;28;20493;-61
2022/12/17 14:51:48;;;;;;;69.95;31.08;;;-0.70;99.90;;;;;;5110697;28;20481;-61
2022/12/17 14:54:18;;;;;;;60.72;26.02;;;-0.70;99.90;;;;;;5117450;28;20403;-61
2022/12/17 14:56:46;;;;;;;66.00;30.52;;;-0.80;99.90;;;;;;5113875;28;20104;-61
2022/12/17 14:59:30;;;;;;;77.25;31.58;;;-0.80;99.90;;;;;;5116004;28;20126;-61
2022/12/17 15:02:00;;;;;;;67.88;29.67;;;-0.90;99.90;;;;;;5104435;28;20158;-62
2022/12/17 15:04:26;;;;;;;31.45;13.25;;;-0.90;99.90;;;;;;5110051;28;20368;-61
2022/12/17 15:06:54;;;;;;;59.38;25.67;;;-0.90;99.90;;;;;;5110752;28;20401;-61
2022/12/17 15:09:20;;;;;;;56.72;21.95;;;-1.00;99.90;;;;;;5114550;28;20067;-61
2022/12/17 15:11:46;;;;;;;38.38;16.83;;;-1.00;99.90;;;;;;5110600;28;20494;-61
2022/12/17 15:14:11;;;;;;;60.63;28.50;;;-1.00;99.90;;;;;;5088982;28;20066;-61
2022/12/17 15:16:37;;;;;;;60.90;26.63;;;-1.10;99.90;;;;;;5107852;28;20039;-61
2022/12/17 15:19:03;;;;;;;48.65;21.23;;;-1.10;99.90;;;;;;5089181;28;20051;-61
2022/12/17 15:21:29;;;;;;;65.75;29.50;;;-1.10;99.90;;;;;;5106851;28;20047;-61
2022/12/17 15:23:54;;;;;;;66.88;25.88;;;-1.20;99.90;;;;;;5113001;28;20036;-61
2022/12/17 15:26:20;;;;;;;72.32;29.55;;;-1.20;99.90;;;;;;5098862;28;20043;-61
2022/12/17 15:28:46;;;;;;;65.97;29.05;;;-1.20;99.90;;;;;;5125716;28;20475;-62
2022/12/17 15:31:13;;;;;;;61.78;25.77;;;-1.20;99.90;;;;;;5123784;28;20102;-61
2022/12/17 15:33:39;;;;;;;78.30;33.28;;;-1.20;99.90;;;;;;5122592;28;20126;-61
2022/12/17 15:36:06;;;;;;;67.95;29.70;;;-1.30;99.90;;;;;;5098237;28;20133;-61
2022/12/17 15:38:31;;;;;;;88.68;33.65;;;-1.30;99.90;;;;;;5112380;28;20043;-61
2022/12/17 15:43:09;;;;;;;47.10;20.25;;;-1.30;99.90;;;;;;5099558;28;20047;-61
2022/12/17 15:43:51;;;;;;;34.22;16.02;;;-1.30;99.90;;;;;;5112778;28;20084;-61
2022/12/17 15:46:16;;;;;;;70.03;27.75;;;-1.30;99.90;;;;;;5098852;28;20075;-61
2022/12/17 15:48:42;;;;;;;48.22;18.75;;;-1.30;99.90;;;;;;5090862;28;20051;-62
2022/12/17 15:51:09;;;;;;;57.78;24.15;;;-1.30;99.90;;;;;;5088915;28;20039;-61
2022/12/17 15:53:34;;;;;;;47.08;20.48;;;-1.30;99.90;;;;;;5094293;28;20053;-62
2022/12/17 15:56:01;;;;;;;71.75;29.77;;;-1.30;99.90;;;;;;5094797;28;20036;-61
2022/12/17 15:58:30;;;;;;;64.10;24.08;;;-1.20;99.90;;;;;;5092534;28;20047;-61
2022/12/17 16:00:56;;;;;;;54.10;20.70;;;-1.20;99.90;;;;;;5099536;28;20506;-61
2022/12/17 16:03:22;;;;;;;42.13;14.93;;;-1.20;99.90;;;;;;5099856;28;20079;-61
2022/12/17 16:05:47;;;;;;;73.88;29.70;;;-1.20;99.90;;;;;;5097021;28;20048;-61
2022/12/17 16:08:14;;;;;;;69.65;27.10;;;-1.30;99.90;;;;;;5088562;28;20447;-61
2022/12/17 16:10:41;;;;;;;61.10;24.95;;;-1.30;99.90;;;;;;5100653;28;20047;-61
2022/12/17 16:13:06;;;;;;;57.45;24.35;;;-1.20;99.90;;;;;;5104530;28;20036;-61
2022/12/17 16:15:32;;;;;;;53.78;21.65;;;-1.30;99.90;;;;;;5094177;28;20090;-61
2022/12/17 16:17:58;;;;;;;61.83;22.00;;;-1.30;99.90;;;;;;5094751;28;20051;-61
2022/12/17 16:20:23;;;;;;;73.30;27.48;;;-1.30;99.90;;;;;;5098934;28;20088;-61
2022/12/17 16:22:49;;;;;;;75.65;29.13;;;-1.30;99.90;;;;;;5091939;28;20485;-61
2022/12/17 16:25:16;;;;;;;61.17;22.23;;;-1.30;99.90;;;;;;5091848;28;20145;-61
2022/12/17 16:27:42;;;;;;;81.68;30.50;;;-1.30;99.90;;;;;;5088860;28;20040;-61
2022/12/17 16:30:10;;;;;;;86.22;30.30;;;-1.30;99.90;;;;;;5093510;28;20130;-61
2022/12/17 16:32:36;;;;;;;60.30;21.17;;;-1.30;99.90;;;;;;5094573;28;20043;-61
2022/12/17 16:35:03;;;;;;;72.22;25.50;;;-1.40;99.90;;;;;;5094439;28;20031;-61
2022/12/17 16:37:29;;;;;;;71.82;28.42;;;-1.40;99.90;;;;;;5098115;27;20482;-61
2022/12/17 16:39:55;;;;;;;71.47;26.65;;;-1.40;99.90;;;;;;5102618;28;20047;-61
2022/12/17 16:42:20;;;;;;;46.40;14.23;;;-1.40;99.90;;;;;;5108014;28;20058;-61
2022/12/17 16:44:46;;;;;;;75.10;22.77;;;-1.40;99.90;;;;;;5106725;28;20082;-61
2022/12/17 16:47:13;;;;;;;63.45;18.65;;;-1.40;99.90;;;;;;5114882;27;20512;-61
2022/12/17 16:49:39;;;;;;;73.00;29.70;;;-1.40;99.90;;;;;;5124469;27;20614;-61
2022/12/17 16:52:05;;;;;;;75.15;23.20;;;-1.40;99.90;;;;;;5091554;27;20047;-61
2022/12/17 16:54:32;;;;;;;65.53;22.17;;;-1.40;99.90;;;;;;5125565;27;20461;-61
2022/12/17 16:56:59;;;;;;;61.72;20.42;;;-1.40;99.90;;;;;;5123834;27;20047;-61
2022/12/17 16:59:24;;;;;;;50.72;17.90;;;-1.40;99.90;;;;;;5104832;27;20048;-60
2022/12/17 17:01:51;;;;;;;67.05;21.45;;;-1.50;99.90;;;;;;5116958;27;20494;-61
2022/12/17 17:04:19;;;;;;;48.67;15.40;;;-1.50;99.90;;;;;;5092520;27;20100;-61
2022/12/17 17:06:47;;;;;;;60.85;19.67;;;-1.60;99.90;;;;;;5005519;27;20060;-61
2022/12/17 17:09:14;;;;;;;30.70;9.75;;;-1.60;99.90;;;;;;5053630;28;20091;-61
2022/12/17 17:11:41;;;;;;;30.58;11.30;;;-1.70;99.90;;;;;;5066972;28;20048;-61
2022/12/17 17:14:09;;;;;;;42.40;11.98;;;-1.70;99.90;;;;;;5057852;28;20129;-61
2022/12/17 17:16:36;;;;;;;53.35;15.30;;;-1.70;99.90;;;;;;5061369;28;20049;-61
2022/12/17 17:19:03;;;;;;;57.88;19.77;;;-1.70;99.90;;;;;;5075852;28;20055;-62
2022/12/17 17:21:34;;;;;;;58.60;17.23;;;-1.80;99.90;;;;;;5066805;28;20036;-61
2022/12/17 17:24:08;;;;;;;40.67;13.65;;;-1.80;99.90;;;;;;5066634;28;20049;-61
2022/12/17 17:26:35;;;;;;;54.70;18.52;;;-1.70;99.90;;;;;;5066836;28;20072;-61
2022/12/17 17:29:01;;;;;;;80.30;24.25;;;-1.70;99.90;;;;;;5066983;28;20082;-61
2022/12/17 17:31:27;;;;;;;69.38;22.10;;;-1.70;99.90;;;;;;5065534;28;20097;-61
2022/12/17 17:33:53;;;;;;;63.85;24.67;;;-1.70;99.90;;;;;;5065618;28;20044;-61
2022/12/17 17:36:22;;;;;;;84.38;26.52;;;-1.70;99.90;;;;;;5067829;28;20055;-61
2022/12/17 17:38:50;;;;;;;77.30;24.75;;;-1.70;99.90;;;;;;5065870;28;20246;-61
2022/12/17 17:41:18;;;;;;;82.22;25.30;;;-1.70;99.90;;;;;;5061532;28;20036;-61
2022/12/17 17:43:44;;;;;;;72.10;22.90;;;-1.70;99.90;;;;;;5061806;28;20548;-61
2022/12/17 17:46:13;;;;;;;71.40;21.90;;;-1.70;99.90;;;;;;5065046;28;20063;-61
2022/12/17 17:48:39;;;;;;;69.15;23.63;;;-1.70;99.90;;;;;;5051066;28;20856;-60
2022/12/17 17:51:11;;;;;;;31.80;11.70;;;-1.70;99.90;;;;;;5058496;28;20048;-61
2022/12/17 17:53:37;;;;;;;57.50;19.48;;;-1.70;99.90;;;;;;5063253;28;20056;-61
2022/12/17 17:56:06;;;;;;;83.43;25.33;;;-1.70;99.90;;;;;;5066031;28;20054;-61
2022/12/17 17:58:33;;;;;;;62.83;17.70;;;-1.70;99.90;;;;;;5064857;28;20503;-61
2022/12/17 18:01:06;;;;;;;50.42;17.02;;;-1.80;99.90;;;;;;5056756;28;20055;-61
2022/12/17 18:03:32;;;;;;;66.55;21.17;;;-1.80;99.90;;;;;;5063871;28;20083;-61
2022/12/17 18:06:02;;;;;;;26.33;9.63;;;-1.80;99.90;;;;;;5065371;28;20067;-60
2022/12/17 18:08:31;;;;;;;39.95;11.20;;;-1.80;99.90;;;;;;5056761;28;20415;-61
2022/12/17 18:10:58;;;;;;;39.33;13.70;;;-1.90;99.90;;;;;;5061719;28;20032;-60
2022/12/17 18:16:09;;;;;;;81.68;26.55;;;-1.90;99.90;;;;;;5062118;28;20049;-61
2022/12/17 18:18:39;;;;;;;62.90;22.57;;;-1.90;99.90;;;;;;5065108;28;20052;-61
2022/12/17 18:21:11;;;;;;;68.57;24.77;;;-2.00;99.90;;;;;;5047805;28;20032;-61
2022/12/17 18:23:37;;;;;;;76.18;24.73;;;-2.00;99.90;;;;;;5053959;28;20490;-61
2022/12/17 18:26:09;;;;;;;81.00;25.70;;;-2.00;99.90;;;;;;5045633;28;20586;-61
2022/12/17 18:28:36;;;;;;;36.38;14.95;;;-2.00;99.90;;;;;;5064589;28;20124;-62
2022/12/17 18:31:12;;;;;;;54.78;21.40;;;-2.00;99.90;;;;;;5064025;28;20479;-60
2022/12/17 18:33:41;;;;;;;76.22;27.55;;;-2.00;99.90;;;;;;5053876;28;20129;-62
2022/12/17 18:36:13;;;;;;;70.95;23.23;;;-2.00;99.90;;;;;;5052520;28;20049;-60
2022/12/17 18:38:40;;;;;;;65.78;24.65;;;-2.00;99.90;;;;;;5053068;28;20052;-59
2022/12/17 18:44:02;;;;;;;70.78;25.92;;;-2.00;99.90;;;;;;5058877;28;20064;-59
2022/12/17 18:46:29;;;;;;;54.65;21.17;;;-2.10;99.90;;;;;;5056911;28;20056;-61
2022/12/17 18:49:00;;;;;;;72.50;28.17;;;-2.10;99.90;;;;;;5064359;28;20399;-60
2022/12/17 18:51:29;;;;;;;65.05;24.77;;;-2.10;99.90;;;;;;5064786;28;20040;-62
2022/12/17 18:54:05;;;;;;;70.63;25.35;;;-2.10;99.90;;;;;;5063592;28;21019;-60
2022/12/17 18:56:31;;;;;;;77.72;29.83;;;-2.10;99.90;;;;;;5055204;28;20105;-60
2022/12/17 18:58:57;;;;;;;47.00;19.40;;;-2.10;99.90;;;;;;5064728;28;20098;-60
2022/12/17 19:01:29;;;;;;;72.60;28.30;;;-2.10;99.90;;;;;;5041454;28;20076;-60
2022/12/17 19:03:55;;;;;;;71.05;26.10;;;-2.10;99.90;;;;;;5065032;28;20052;-60
2022/12/17 19:06:22;;;;;;;82.93;30.75;;;-2.00;99.90;;;;;;5055904;28;21683;-59
2022/12/17 19:08:49;;;;;;;86.82;31.92;;;-2.00;99.90;;;;;;5060551;28;20391;-62
2022/12/17 19:11:17;;;;;;;82.68;26.08;;;-2.00;99.90;;;;;;5049595;28;20044;-62
2022/12/17 19:13:43;;;;;;;75.20;27.80;;;-2.00;99.90;;;;;;5065233;28;20052;-60
2022/12/17 19:16:12;;;;;;;74.38;29.42;;;-2.00;99.90;;;;;;5045492;28;20040;-60
2022/12/17 19:18:38;;;;;;;59.80;22.00;;;-2.00;99.90;;;;;;5065278;28;20158;-62
2022/12/17 19:21:11;;;;;;;34.50;12.07;;;-2.00;99.90;;;;;;5066701;28;20048;-60
2022/12/17 19:23:37;;;;;;;69.82;24.42;;;-2.00;99.90;;;;;;5059158;28;20048;-62
2022/12/17 19:26:12;;;;;;;55.97;19.92;;;-2.00;99.90;;;;;;5067475;28;20074;-60
2022/12/17 19:28:43;;;;;;;38.65;12.30;;;-2.10;99.90;;;;;;5068139;28;20069;-59
2022/12/17 19:31:09;;;;;;;42.25;17.90;;;-2.10;99.90;;;;;;5067976;28;20514;-60
2022/12/17 19:33:36;;;;;;;80.85;31.27;;;-2.10;99.90;;;;;;5067695;28;20041;-59
2022/12/17 19:36:04;;;;;;;35.38;14.30;;;-2.20;99.90;;;;;;5067813;28;20048;-60
2022/12/17 19:38:29;;;;;;;68.43;24.73;;;-2.20;99.90;;;;;;5067660;28;20040;-60
2022/12/17 19:40:55;;;;;;;69.78;25.83;;;-2.20;99.90;;;;;;5059353;28;20056;-60
2022/12/17 19:43:21;;;;;;;36.17;15.00;;;-2.20;99.90;;;;;;5069313;28;20072;-60
2022/12/17 19:45:47;;;;;;;45.95;17.00;;;-2.20;99.90;;;;;;5062797;28;20091;-59
2022/12/17 19:48:15;;;;;;;88.03;31.80;;;-2.20;99.90;;;;;;5066777;28;20478;-60
2022/12/17 19:50:41;;;;;;;71.25;27.77;;;-2.20;99.90;;;;;;5066715;28;20048;-59
2022/12/17 19:53:07;;;;;;;50.35;17.88;;;-2.20;99.90;;;;;;5068336;28;20164;-60
2022/12/17 19:55:33;;;;;;;68.70;26.60;;;-2.10;99.90;;;;;;5068267;28;20049;-60
2022/12/17 19:57:58;;;;;;;85.72;34.13;;;-2.20;99.90;;;;;;5067716;28;20049;-59
2022/12/17 20:00:24;;;;;;;57.72;23.73;;;-2.10;99.90;;;;;;5057111;28;20049;-59
2022/12/17 20:02:49;;;;;;;87.25;32.08;;;-2.20;99.90;;;;;;5066196;28;20551;-60
2022/12/17 20:05:15;;;;;;;79.38;31.70;;;-2.20;99.90;;;;;;5066810;28;20055;-59
2022/12/17 20:07:41;;;;;;;70.15;27.08;;;-2.20;99.90;;;;;;5055187;28;20036;-59
2022/12/17 20:10:07;;;;;;;46.92;20.40;;;-2.10;99.90;;;;;;5062611;28;20502;-59
2022/12/17 20:12:33;;;;;;;69.93;27.15;;;-2.20;99.90;;;;;;5066318;28;20040;-60
2022/12/17 20:14:58;;;;;;;37.88;15.38;;;-2.20;99.90;;;;;;5066594;28;20079;-59
2022/12/17 20:17:24;;;;;;;35.85;14.20;;;-2.20;99.90;;;;;;5068330;28;20453;-60
2022/12/17 20:19:52;;;;;;;79.28;30.95;;;-2.20;99.90;;;;;;5062719;28;20125;-60
2022/12/17 20:22:18;;;;;;;103.10;41.97;;;-2.20;99.90;;;;;;5061589;28;20052;-60
2022/12/17 20:24:43;;;;;;;96.82;39.72;;;-2.20;99.90;;;;;;5066209;28;20047;-60
2022/12/17 20:27:09;;;;;;;107.95;39.75;;;-2.30;99.90;;;;;;5066111;28;20045;-59
2022/12/17 20:29:35;;;;;;;99.82;37.17;;;-2.20;99.90;;;;;;5060401;28;20091;-59
2022/12/17 20:32:01;;;;;;;110.70;41.58;;;-2.20;99.90;;;;;;5062187;28;20049;-60
2022/12/17 20:34:27;;;;;;;78.22;29.05;;;-2.20;99.90;;;;;;5067747;28;20098;-60
2022/12/17 20:36:53;;;;;;;81.15;33.63;;;-2.20;99.90;;;;;;5067577;28;20082;-59
2022/12/17 20:39:19;;;;;;;77.57;28.20;;;-2.20;99.90;;;;;;5068156;28;20860;-60
2022/12/17 20:41:45;;;;;;;71.05;22.80;;;-2.30;99.90;;;;;;5065487;28;20044;-60
2022/12/17 20:44:13;;;;;;;66.63;29.60;;;-2.30;99.90;;;;;;5060274;28;20052;-59
2022/12/17 20:46:40;;;;;;;57.15;24.05;;;-2.30;99.90;;;;;;5063003;28;20057;-60
2022/12/17 20:49:07;;;;;;;92.60;35.35;;;-2.30;99.90;;;;;;5067458;28;20048;-59
2022/12/17 20:51:33;;;;;;;82.50;33.38;;;-2.30;99.90;;;;;;5065901;28;20055;-59
2022/12/17 20:54:00;;;;;;;105.25;40.03;;;-2.30;99.90;;;;;;5065873;28;20108;-60
2022/12/17 20:56:32;;;;;;;101.95;34.67;;;-2.30;99.90;;;;;;5066272;28;20045;-59
2022/12/17 20:59:01;;;;;;;82.88;36.17;;;-2.30;99.90;;;;;;5050837;28;20512;-60
2022/12/17 21:01:29;;;;;;;78.63;29.48;;;-2.30;99.90;;;;;;5059130;28;20104;-60
2022/12/17 21:03:56;;;;;;;99.13;39.28;;;-2.30;99.90;;;;;;5065213;28;20059;-60
2022/12/17 21:06:31;;;;;;;96.18;38.40;;;-2.40;99.90;;;;;;5064423;28;20052;-60
2022/12/17 21:08:57;;;;;;;93.25;37.92;;;-2.40;99.90;;;;;;5064556;28;20108;-59
2022/12/17 21:11:25;;;;;;;101.72;42.47;;;-2.40;99.90;;;;;;5066437;28;20407;-60
2022/12/17 21:13:51;;;;;;;96.00;39.97;;;-2.40;99.90;;;;;;5067086;28;20037;-60
2022/12/17 21:16:20;;;;;;;92.85;38.15;;;-2.40;99.90;;;;;;5056648;28;20070;-60
2022/12/17 21:18:46;;;;;;;67.25;25.45;;;-2.40;99.90;;;;;;5067699;28;20119;-60
2022/12/17 21:21:17;;;;;;;82.95;31.27;;;-2.40;99.90;;;;;;5063646;28;20559;-60
2022/12/17 21:23:44;;;;;;;69.82;26.75;;;-2.40;99.90;;;;;;5067163;28;20410;-60
2022/12/17 21:26:12;;;;;;;110.13;40.47;;;-2.40;99.90;;;;;;5064739;28;20040;-60
2022/12/17 21:28:40;;;;;;;66.80;25.38;;;-2.40;99.90;;;;;;5065513;28;20059;-59
2022/12/17 21:31:15;;;;;;;66.50;25.92;;;-2.40;99.90;;;;;;5054372;28;20385;-59
2022/12/17 21:33:41;;;;;;;64.85;23.42;;;-2.50;99.90;;;;;;5055873;28;20191;-59
2022/12/17 21:36:06;;;;;;;111.78;41.42;;;-2.50;99.90;;;;;;5066921;28;20052;-60
2022/12/17 21:38:32;;;;;;;66.22;23.65;;;-2.40;99.90;;;;;;5061309;28;20044;-60
2022/12/17 21:41:23;;;;;;;76.05;29.80;;;-2.50;99.90;;;;;;5064762;28;20134;-60
2022/12/17 21:43:57;;;;;;;74.25;24.38;;;-2.50;99.90;;;;;;5049266;28;20113;-59
2022/12/17 21:46:27;;;;;;;103.00;37.78;;;-2.50;99.90;;;;;;5059801;28;20049;-59
2022/12/17 21:48:55;;;;;;;34.67;16.58;;;-2.50;99.90;;;;;;5053806;28;20518;-59
2022/12/17 21:51:22;;;;;;;82.80;29.13;;;-2.50;99.90;;;;;;5061038;28;20123;-60
2022/12/17 21:53:57;;;;;;;93.50;37.75;;;-2.50;99.90;;;;;;5057168;28;20049;-60
2022/12/17 21:56:24;;;;;;;87.55;34.15;;;-2.50;99.90;;;;;;5058586;28;20103;-60
2022/12/17 21:58:55;;;;;;;70.20;26.50;;;-2.50;99.90;;;;;;5061510;28;20079;-60
2022/12/17 22:01:27;;;;;;;71.38;26.08;;;-2.50;99.90;;;;;;5063740;28;20122;-60
2022/12/17 22:03:56;;;;;;;88.60;31.92;;;-2.50;99.90;;;;;;5062189;28;20111;-60
2022/12/17 22:06:24;;;;;;;107.00;40.03;;;-2.50;99.90;;;;;;5059483;28;20479;-59
2022/12/17 22:08:50;;;;;;;93.40;34.60;;;-2.50;99.90;;;;;;5054517;28;20909;-60
2022/12/17 22:11:19;;;;;;;81.40;27.08;;;-2.50;99.90;;;;;;5051720;28;20507;-60
2022/12/17 22:14:01;;;;;;;58.22;20.40;;;-2.50;99.90;;;;;;5065064;28;20123;-59
2022/12/17 22:16:33;;;;;;;64.03;23.70;;;-2.50;99.90;;;;;;5048641;28;20107;-60
2022/12/17 22:18:59;;;;;;;83.63;29.88;;;-2.50;99.90;;;;;;5057254;28;20045;-60
2022/12/17 22:21:25;;;;;;;106.93;39.25;;;-2.60;99.90;;;;;;5052360;28;20037;-60
2022/12/17 22:23:52;;;;;;;104.07;38.22;;;-2.60;99.90;;;;;;5066519;28;20119;-60
2022/12/17 22:26:19;;;;;;;87.25;32.67;;;-2.60;99.90;;;;;;5065412;28;20048;-60
2022/12/17 22:28:48;;;;;;;92.43;35.78;;;-2.60;99.90;;;;;;5060669;28;20094;-60
2022/12/17 22:34:05;;;;;;;53.13;18.58;;;-2.60;99.90;;;;;;5055252;28;20044;-59
2022/12/17 22:36:33;;;;;;;68.30;24.05;;;-2.70;99.90;;;;;;5062242;28;20098;-60
2022/12/17 22:39:04;;;;;;;84.80;27.65;;;-2.70;99.90;;;;;;5065534;28;20864;-60
2022/12/17 22:44:14;;;;;;;78.72;28.27;;;-2.80;99.90;;;;;;5057542;28;20044;-59
2022/12/17 22:46:41;;;;;;;108.47;36.70;;;-2.70;99.90;;;;;;5083176;28;20090;-60
2022/12/17 22:49:07;;;;;;;96.93;34.88;;;-2.70;99.90;;;;;;5065742;28;20110;-59
2022/12/17 22:51:33;;;;;;;104.57;34.03;;;-2.70;99.90;;;;;;5065274;28;20531;-60
2022/12/17 22:54:01;;;;;;;63.53;25.20;;;-2.70;99.90;;;;;;5053905;28;20048;-59
2022/12/17 22:56:27;;;;;;;85.82;29.00;;;-2.70;99.90;;;;;;5061916;28;20443;-60
2022/12/17 22:58:53;;;;;;;71.60;27.92;;;-2.70;99.90;;;;;;5047389;28;20049;-60
2022/12/17 23:01:18;;;;;;;95.18;37.47;;;-2.80;99.90;;;;;;5063431;28;20072;-60
2022/12/17 23:03:44;;;;;;;95.13;30.75;;;-2.80;99.90;;;;;;5063237;28;20051;-60
2022/12/17 23:06:13;;;;;;;59.22;22.55;;;-2.80;99.90;;;;;;5055052;28;20049;-59
2022/12/17 23:08:39;;;;;;;69.63;25.83;;;-2.80;99.90;;;;;;5058303;28;20455;-60
2022/12/17 23:11:07;;;;;;;106.70;39.47;;;-2.90;99.90;;;;;;5065634;28;20083;-60
2022/12/17 23:13:33;;;;;;;112.90;41.47;;;-2.80;99.90;;;;;;5063952;28;20475;-59
2022/12/17 23:16:00;;;;;;;99.30;37.17;;;-2.80;99.90;;;;;;5064522;28;20079;-60
2022/12/17 23:18:26;;;;;;;92.80;35.50;;;-2.80;99.90;;;;;;5065241;28;20446;-60
2022/12/17 23:20:52;;;;;;;126.50;43.17;;;-2.80;99.90;;;;;;5065820;28;20048;-60
2022/12/17 23:23:18;;;;;;;108.95;37.95;;;-2.80;99.90;;;;;;5065616;28;20398;-60
2022/12/17 23:25:44;;;;;;;69.95;26.15;;;-2.80;99.90;;;;;;5064250;28;20041;-60
2022/12/17 23:28:10;;;;;;;40.70;14.65;;;-2.80;99.90;;;;;;5065243;28;20049;-59
2022/12/17 23:30:36;;;;;;;50.92;18.20;;;-2.80;99.90;;;;;;5065082;28;20040;-59
2022/12/17 23:33:02;;;;;;;85.82;27.50;;;-2.80;99.90;;;;;;5065027;28;20036;-59
2022/12/17 23:35:28;;;;;;;99.28;32.65;;;-2.80;99.90;;;;;;5064812;28;20128;-59
2022/12/17 23:37:54;;;;;;;79.28;27.77;;;-2.80;99.90;;;;;;5063770;28;20106;-60
2022/12/17 23:40:20;;;;;;;109.75;39.80;;;-2.80;99.90;;;;;;5064847;28;20531;-60
2022/12/17 23:42:46;;;;;;;102.72;37.05;;;-2.80;99.90;;;;;;5065626;28;20052;-60
2022/12/17 23:45:12;;;;;;;82.72;31.00;;;-2.80;99.90;;;;;;5061571;28;20041;-60
2022/12/17 23:47:39;;;;;;;98.50;32.13;;;-2.90;99.90;;;;;;5056579;28;20560;-60
2022/12/17 23:50:06;;;;;;;45.10;16.08;;;-2.90;99.90;;;;;;5062543;28;20083;-59
2022/12/17 23:52:32;;;;;;;103.65;35.53;;;-2.90;99.90;;;;;;5064415;28;20044;-60
2022/12/17 23:54:58;;;;;;;101.82;38.17;;;-3.00;99.90;;;;;;5065329;28;20051;-60
2022/12/17 23:57:24;;;;;;;90.13;34.08;;;-3.00;99.90;;;;;;5065038;28;20039;-60
2022/12/17 23:59:49;;;;;;;101.70;36.10;;;-3.00;99.90;;;;;;5045630;28;20044;-60
